Time;durP1;ratioP1;P1;durP2;ratioP2;P2;SDS_P1;SDS_P2;PMS_P1;PMS_P2;Temp;Humidity;BMP_temperature;BMP_pressure;BME280_temperature;BME280_humidity;BME280_pressure;Samples;Min_cycle;Max_cycle;Signal;HPM_P1;HPM_P2
2022/12/25 00:00:11;;;;;;;10.00;5.60;;;11.60;99.90;;;;;;5094411;28;20172;-70
2022/12/25 00:02:37;;;;;;;8.33;4.83;;;11.60;99.90;;;;;;5093371;28;20179;-70
2022/12/25 00:05:03;;;;;;;9.43;5.10;;;11.60;99.90;;;;;;5094669;28;20235;-70
2022/12/25 00:07:29;;;;;;;11.10;5.20;;;11.60;99.90;;;;;;5094448;28;20168;-71
2022/12/25 00:09:55;;;;;;;9.03;4.90;;;11.60;99.90;;;;;;5094365;28;20229;-70
2022/12/25 00:12:21;;;;;;;10.73;5.60;;;11.60;99.90;;;;;;5094202;28;20182;-71
2022/12/25 00:14:47;;;;;;;7.27;4.77;;;11.60;99.90;;;;;;5094148;28;20281;-71
2022/12/25 00:17:12;;;;;;;11.30;4.93;;;11.50;99.90;;;;;;5094196;28;20219;-70
2022/12/25 00:19:38;;;;;;;8.87;4.97;;;11.50;99.90;;;;;;5094314;28;20183;-71
2022/12/25 00:22:04;;;;;;;9.43;4.77;;;11.50;99.90;;;;;;5094312;28;20682;-70
2022/12/25 00:24:29;;;;;;;8.73;4.70;;;11.50;99.90;;;;;;5094244;28;20286;-70
2022/12/25 00:26:55;;;;;;;8.93;4.80;;;11.50;99.90;;;;;;5094136;28;20176;-70
2022/12/25 00:29:20;;;;;;;8.03;4.60;;;11.50;99.90;;;;;;5093787;28;20168;-71
2022/12/25 00:31:46;;;;;;;10.30;4.77;;;11.50;99.90;;;;;;5094253;28;20579;-71
2022/12/25 00:34:11;;;;;;;7.70;4.47;;;11.60;99.90;;;;;;5093714;28;20230;-71
2022/12/25 00:36:37;;;;;;;9.33;4.47;;;11.60;99.90;;;;;;5093968;28;20208;-70
2022/12/25 00:39:03;;;;;;;10.37;4.47;;;11.60;99.90;;;;;;5093907;28;20164;-71
2022/12/25 00:44:13;;;;;;;11.13;4.40;;;11.60;99.90;;;;;;5093814;28;20175;-71
2022/12/25 00:46:39;;;;;;;10.40;3.90;;;11.60;99.90;;;;;;5093937;28;20164;-71
2022/12/25 00:49:05;;;;;;;8.57;3.83;;;11.60;99.90;;;;;;5093891;28;20259;-71
2022/12/25 00:51:32;;;;;;;6.03;3.50;;;11.60;99.90;;;;;;5093956;28;20196;-71
2022/12/25 00:53:58;;;;;;;5.70;3.77;;;11.60;99.90;;;;;;5093989;28;20183;-70
2022/12/25 00:56:24;;;;;;;8.93;3.50;;;11.60;99.90;;;;;;5093580;28;20606;-71
2022/12/25 00:58:50;;;;;;;6.03;3.37;;;11.60;99.90;;;;;;5093363;28;20655;-71
2022/12/25 01:01:16;;;;;;;7.10;3.97;;;11.60;99.90;;;;;;5093681;28;20170;-70
2022/12/25 01:03:42;;;;;;;7.00;3.50;;;11.60;99.90;;;;;;5075544;28;20164;-71
2022/12/25 01:06:09;;;;;;;5.23;3.00;;;11.70;99.90;;;;;;5093707;28;20171;-70
2022/12/25 01:08:36;;;;;;;6.00;3.23;;;11.70;99.90;;;;;;5075364;28;20199;-70
2022/12/25 01:11:05;;;;;;;5.97;2.90;;;11.70;99.90;;;;;;5093676;28;20259;-70
2022/12/25 01:13:34;;;;;;;4.90;2.73;;;11.60;99.90;;;;;;5093239;28;20262;-69
2022/12/25 01:16:10;;;;;;;5.60;2.73;;;11.60;99.90;;;;;;5093414;28;20207;-70
2022/12/25 01:18:36;;;;;;;6.47;3.00;;;11.60;99.90;;;;;;5093565;28;20171;-70
2022/12/25 01:21:08;;;;;;;6.93;2.87;;;11.60;99.90;;;;;;5093603;28;20298;-71
2022/12/25 01:23:35;;;;;;;5.53;2.87;;;11.60;99.90;;;;;;5093213;28;20184;-71
2022/12/25 01:26:05;;;;;;;5.77;2.20;;;11.70;99.90;;;;;;5092989;28;20168;-70
2022/12/25 01:28:30;;;;;;;5.53;2.37;;;11.70;99.90;;;;;;5093234;28;20263;-71
2022/12/25 01:30:56;;;;;;;6.20;2.37;;;11.70;99.90;;;;;;5093224;28;20251;-70
2022/12/25 01:33:21;;;;;;;6.33;2.13;;;11.70;99.90;;;;;;5092869;28;20760;-70
2022/12/25 01:35:47;;;;;;;6.43;2.37;;;11.70;99.90;;;;;;5093309;28;20211;-70
2022/12/25 01:38:13;;;;;;;4.03;1.90;;;11.70;99.90;;;;;;5093212;28;20640;-70
2022/12/25 01:40:39;;;;;;;5.63;1.97;;;11.70;99.90;;;;;;5092889;28;20164;-70
2022/12/25 01:43:29;;;;;;;4.83;2.10;;;11.70;99.90;;;;;;5093188;28;20216;-70
2022/12/25 01:45:56;;;;;;;5.30;2.10;;;11.70;99.90;;;;;;5093039;28;20203;-70
2022/12/25 01:48:27;;;;;;;5.27;1.90;;;11.80;99.90;;;;;;5091783;28;20167;-70
2022/12/25 01:51:16;;;;;;;5.93;2.20;;;11.80;99.90;;;;;;5093290;28;20194;-70
2022/12/25 01:53:41;;;;;;;4.20;2.10;;;11.80;99.90;;;;;;5093181;28;20176;-70
2022/12/25 01:56:08;;;;;;;6.30;2.03;;;11.80;99.90;;;;;;5092434;28;20208;-70
2022/12/25 01:58:34;;;;;;;3.40;1.90;;;11.70;99.90;;;;;;5093130;28;20176;-71
2022/12/25 02:01:00;;;;;;;3.67;1.90;;;11.90;99.90;;;;;;5093143;28;20194;-70
2022/12/25 02:03:25;;;;;;;4.73;2.30;;;11.90;99.90;;;;;;5074934;28;20168;-71
2022/12/25 02:05:53;;;;;;;4.47;2.27;;;11.90;99.90;;;;;;5093076;28;20251;-70
2022/12/25 02:08:20;;;;;;;3.97;2.10;;;11.90;99.90;;;;;;5093026;28;20187;-71
2022/12/25 02:10:46;;;;;;;5.50;2.10;;;11.90;99.90;;;;;;5092612;28;20164;-70
2022/12/25 02:13:15;;;;;;;7.00;1.90;;;12.00;99.90;;;;;;5093211;28;20172;-71
2022/12/25 02:15:49;;;;;;;3.30;1.90;;;12.00;99.90;;;;;;5092890;28;20164;-70
2022/12/25 02:18:36;;;;;;;5.47;2.13;;;11.90;99.90;;;;;;5092977;28;20172;-70
2022/12/25 02:21:20;;;;;;;5.50;2.23;;;11.90;99.90;;;;;;5074700;28;20172;-70
2022/12/25 02:24:02;;;;;;;4.27;2.03;;;11.90;99.90;;;;;;5074372;28;20196;-70
2022/12/25 02:26:50;;;;;;;8.17;2.20;;;11.90;99.90;;;;;;5092816;28;20170;-70
2022/12/25 02:29:34;;;;;;;2.97;1.93;;;11.90;99.90;;;;;;5092966;28;20239;-70
2022/12/25 02:32:22;;;;;;;5.27;2.50;;;11.90;99.90;;;;;;5092272;28;20274;-70
2022/12/25 02:34:52;;;;;;;3.37;2.00;;;12.00;99.90;;;;;;5095226;28;20183;-70
2022/12/25 02:37:30;;;;;;;7.17;2.43;;;11.90;99.90;;;;;;5096325;28;20225;-70
2022/12/25 02:40:00;;;;;;;4.50;2.10;;;11.90;99.90;;;;;;5095991;28;20197;-69
2022/12/25 03:08:02;;;;;;;6.73;2.43;;;11.90;99.90;;;;;;5095865;28;20240;-70
2022/12/25 03:13:17;;;;;;;4.87;2.20;;;11.80;99.90;;;;;;5095762;28;20210;-70
2022/12/25 03:18:31;;;;;;;3.70;2.23;;;11.70;99.90;;;;;;5095930;28;20534;-70
2022/12/25 03:32:39;;;;;;;6.13;2.10;;;11.40;99.90;;;;;;5095371;28;20195;-69
2022/12/25 03:35:23;;;;;;;4.87;2.10;;;11.30;99.90;;;;;;4993592;28;20789;-70
2022/12/25 04:36:20;;;;;;;8.13;6.30;;;11.10;99.90;;;;;;5093713;28;20564;-70
2022/12/25 04:38:46;;;;;;;10.03;7.20;;;11.10;99.90;;;;;;5093721;28;20172;-70
2022/12/25 04:41:12;;;;;;;15.83;7.77;;;11.10;99.90;;;;;;5093707;28;20199;-70
2022/12/25 04:43:38;;;;;;;18.67;9.43;;;11.20;99.90;;;;;;5075440;28;20365;-70
2022/12/25 04:46:04;;;;;;;12.00;8.30;;;11.30;99.90;;;;;;5093510;28;20354;-70
2022/12/25 04:48:32;;;;;;;13.87;9.63;;;11.30;99.90;;;;;;5075428;28;20186;-69
2022/12/25 04:51:12;;;;;;;10.87;8.43;;;11.40;99.90;;;;;;5092986;28;20168;-70
2022/12/25 04:53:38;;;;;;;15.57;9.30;;;11.40;99.90;;;;;;5093821;28;20213;-70
2022/12/25 04:56:04;;;;;;;13.10;9.17;;;11.40;99.90;;;;;;5093312;28;20691;-69
2022/12/25 04:58:30;;;;;;;15.13;9.17;;;11.30;99.90;;;;;;5093280;28;20175;-69
2022/12/25 05:00:59;;;;;;;14.10;8.77;;;11.30;99.90;;;;;;5075548;28;20217;-70
2022/12/25 05:03:25;;;;;;;12.93;8.53;;;11.40;99.90;;;;;;5093012;28;20173;-69
2022/12/25 05:05:51;;;;;;;12.07;8.80;;;11.40;99.90;;;;;;5074991;28;20635;-69
2022/12/25 05:08:16;;;;;;;11.67;9.90;;;11.40;99.90;;;;;;5093005;28;20643;-69
2022/12/25 05:10:42;;;;;;;11.47;8.87;;;11.40;99.90;;;;;;5093319;28;20171;-69
2022/12/25 05:13:08;;;;;;;13.43;9.70;;;11.40;99.90;;;;;;5093257;28;20513;-70
2022/12/25 05:15:33;;;;;;;13.17;9.70;;;11.40;99.90;;;;;;5093260;28;20164;-70
2022/12/25 05:17:59;;;;;;;14.27;10.00;;;11.30;99.90;;;;;;5093058;28;20226;-70
2022/12/25 05:20:24;;;;;;;15.63;9.97;;;11.30;99.90;;;;;;5092772;28;20715;-70
2022/12/25 05:22:50;;;;;;;17.07;10.40;;;11.40;99.90;;;;;;5093384;28;20183;-69
2022/12/25 05:25:16;;;;;;;11.73;9.43;;;11.50;99.90;;;;;;5093274;28;20199;-70
2022/12/25 05:27:41;;;;;;;17.00;10.00;;;11.60;99.90;;;;;;5093136;28;20183;-70
2022/12/25 05:30:07;;;;;;;14.07;9.97;;;11.60;99.90;;;;;;5093480;28;20164;-70
2022/12/25 05:32:33;;;;;;;12.50;8.17;;;11.50;99.90;;;;;;5092539;28;20231;-70
2022/12/25 05:34:59;;;;;;;10.73;8.87;;;11.60;99.90;;;;;;5093251;28;20164;-69
2022/12/25 05:37:25;;;;;;;12.23;8.53;;;11.60;99.90;;;;;;5093026;28;20302;-69
2022/12/25 05:39:51;;;;;;;13.40;9.00;;;11.60;99.90;;;;;;5093185;28;20527;-70
2022/12/25 05:42:16;;;;;;;13.67;8.93;;;11.60;99.90;;;;;;5093164;28;20250;-69
2022/12/25 05:44:42;;;;;;;11.53;9.27;;;11.60;99.90;;;;;;5074581;28;20203;-71
2022/12/25 05:47:07;;;;;;;12.87;8.60;;;11.60;99.90;;;;;;5092588;28;20160;-70
2022/12/25 05:49:33;;;;;;;11.30;8.00;;;11.60;99.90;;;;;;5092965;28;20210;-69
2022/12/25 05:51:59;;;;;;;11.23;8.33;;;11.60;99.90;;;;;;5092714;28;20572;-69
2022/12/25 05:54:24;;;;;;;11.00;7.93;;;11.70;99.90;;;;;;5093046;28;20175;-70
2022/12/25 05:56:50;;;;;;;10.93;7.47;;;11.70;99.90;;;;;;5091401;28;20742;-70
2022/12/25 05:59:15;;;;;;;11.23;7.70;;;11.70;99.90;;;;;;5092665;28;20221;-71
2022/12/25 06:01:41;;;;;;;10.03;7.80;;;11.60;99.90;;;;;;5092518;28;20650;-70
2022/12/25 06:04:07;;;;;;;10.93;7.90;;;11.60;99.90;;;;;;5092915;28;20195;-71
2022/12/25 06:06:32;;;;;;;8.90;7.47;;;11.70;99.90;;;;;;5093018;28;20584;-70
2022/12/25 06:08:58;;;;;;;8.63;7.07;;;11.70;99.90;;;;;;5093658;28;20688;-70
2022/12/25 06:11:23;;;;;;;7.30;6.10;;;11.70;99.90;;;;;;5096489;28;20179;-69
2022/12/25 06:13:52;;;;;;;5.70;5.13;;;11.60;99.90;;;;;;5096735;28;20172;-70
2022/12/25 06:16:18;;;;;;;6.20;4.87;;;11.50;99.90;;;;;;5096081;28;20203;-70
2022/12/25 06:18:47;;;;;;;6.20;5.00;;;11.40;99.90;;;;;;5078213;28;20634;-69
2022/12/25 06:21:14;;;;;;;6.10;5.23;;;11.30;99.90;;;;;;5096510;28;20691;-70
2022/12/25 06:23:40;;;;;;;5.33;4.37;;;11.20;99.90;;;;;;5096610;28;20219;-69
2022/12/25 06:26:08;;;;;;;6.63;4.30;;;11.20;99.90;;;;;;5096497;28;20168;-69
2022/12/25 06:28:34;;;;;;;5.23;4.53;;;11.20;99.90;;;;;;5096640;28;20168;-70
2022/12/25 06:31:06;;;;;;;5.27;4.43;;;11.20;99.90;;;;;;5095926;28;20168;-69
2022/12/25 06:33:32;;;;;;;5.40;4.07;;;11.20;99.90;;;;;;5095994;28;20280;-71
2022/12/25 06:35:57;;;;;;;4.20;3.67;;;11.20;99.90;;;;;;5096091;28;20196;-69
2022/12/25 06:38:23;;;;;;;7.57;4.43;;;11.30;99.90;;;;;;5096194;28;20176;-69
2022/12/25 06:40:48;;;;;;;8.87;3.70;;;11.30;99.90;;;;;;5096005;28;20164;-68
2022/12/25 06:43:14;;;;;;;7.70;4.40;;;11.30;99.90;;;;;;5095960;28;20202;-69
2022/12/25 06:45:40;;;;;;;6.23;3.73;;;11.30;99.90;;;;;;5076900;28;20168;-69
2022/12/25 06:48:05;;;;;;;6.00;3.90;;;11.20;99.90;;;;;;5095811;28;20179;-70
2022/12/25 06:50:31;;;;;;;4.83;3.60;;;11.20;99.90;;;;;;5095826;28;20221;-70
2022/12/25 06:52:56;;;;;;;4.03;3.60;;;11.10;99.90;;;;;;5096094;28;20172;-69
2022/12/25 06:55:22;;;;;;;3.93;3.57;;;11.10;99.90;;;;;;5095896;28;20200;-69
2022/12/25 06:57:47;;;;;;;4.63;3.60;;;11.10;99.90;;;;;;5077163;28;20257;-69
2022/12/25 07:00:14;;;;;;;3.80;3.50;;;11.00;99.90;;;;;;5095115;28;20164;-69
2022/12/25 07:02:44;;;;;;;4.93;3.80;;;11.00;99.90;;;;;;5095669;28;20642;-69
2022/12/25 07:05:10;;;;;;;4.93;3.50;;;11.00;99.90;;;;;;5095814;28;20164;-69
2022/12/25 07:07:35;;;;;;;3.63;3.33;;;11.10;99.90;;;;;;5095665;28;20523;-69
2022/12/25 07:10:01;;;;;;;4.50;3.80;;;11.10;99.90;;;;;;5095472;28;20284;-69
2022/12/25 07:12:27;;;;;;;10.07;4.00;;;11.10;99.90;;;;;;5095392;28;20172;-70
2022/12/25 07:14:53;;;;;;;3.27;2.97;;;11.10;99.90;;;;;;5095101;28;20566;-70
2022/12/25 07:17:20;;;;;;;3.40;3.10;;;11.20;99.90;;;;;;5077051;28;20689;-70
2022/12/25 07:19:46;;;;;;;3.70;3.40;;;11.10;99.90;;;;;;5095341;28;20191;-70
2022/12/25 07:22:12;;;;;;;4.33;3.10;;;11.10;99.90;;;;;;5095379;28;20572;-68
2022/12/25 07:24:38;;;;;;;3.80;3.40;;;11.20;99.90;;;;;;5095346;28;20215;-70
2022/12/25 07:27:03;;;;;;;3.80;3.40;;;11.30;99.90;;;;;;5094991;28;20264;-70
2022/12/25 07:29:29;;;;;;;4.03;3.40;;;11.30;99.90;;;;;;5095107;28;20202;-70
2022/12/25 07:31:55;;;;;;;3.40;3.10;;;11.30;99.90;;;;;;5095189;28;20237;-70
2022/12/25 07:34:22;;;;;;;3.63;3.33;;;11.40;99.90;;;;;;5074888;28;20722;-70
2022/12/25 07:36:47;;;;;;;4.57;3.50;;;11.40;99.90;;;;;;5074717;28;20315;-70
2022/12/25 07:39:13;;;;;;;4.93;3.30;;;11.50;99.90;;;;;;5074786;28;20518;-70
2022/12/25 07:41:39;;;;;;;3.93;3.50;;;11.40;99.90;;;;;;5074800;28;20201;-70
2022/12/25 07:44:05;;;;;;;3.73;3.37;;;11.40;99.90;;;;;;5074236;28;20251;-70
2022/12/25 07:46:30;;;;;;;3.73;3.43;;;11.40;99.90;;;;;;5074512;28;20212;-70
2022/12/25 07:48:56;;;;;;;4.03;3.67;;;11.40;99.90;;;;;;5074521;28;20570;-70
2022/12/25 07:51:22;;;;;;;3.50;3.20;;;11.40;99.90;;;;;;5074415;28;20190;-70
2022/12/25 07:53:48;;;;;;;3.73;3.43;;;11.40;99.90;;;;;;5073339;28;20173;-70
2022/12/25 07:56:18;;;;;;;3.40;2.90;;;11.40;99.90;;;;;;5074329;28;20208;-70
2022/12/25 07:58:44;;;;;;;3.80;3.50;;;11.50;99.90;;;;;;5073917;28;20161;-70
2022/12/25 08:01:16;;;;;;;3.80;3.50;;;11.40;99.90;;;;;;5074139;28;20365;-70
2022/12/25 08:03:42;;;;;;;4.53;3.43;;;11.40;99.90;;;;;;5073946;28;20204;-70
2022/12/25 08:06:09;;;;;;;3.80;3.50;;;11.40;99.90;;;;;;5074116;28;20203;-70
2022/12/25 08:08:36;;;;;;;3.53;3.27;;;11.40;99.90;;;;;;5074102;28;20165;-70
2022/12/25 08:11:02;;;;;;;5.50;4.00;;;11.40;99.90;;;;;;5072748;28;20302;-70
2022/12/25 08:13:32;;;;;;;4.27;3.80;;;11.40;99.90;;;;;;5073343;28;20177;-70
2022/12/25 08:15:59;;;;;;;4.90;4.40;;;11.50;99.90;;;;;;5073514;28;20692;-70
2022/12/25 08:18:25;;;;;;;4.00;3.60;;;11.40;99.90;;;;;;5073869;28;20176;-70
2022/12/25 08:20:50;;;;;;;5.17;4.17;;;11.40;99.90;;;;;;5074070;28;20255;-71
2022/12/25 08:23:17;;;;;;;6.20;3.80;;;11.40;99.90;;;;;;5073514;28;20176;-70
2022/12/25 08:25:42;;;;;;;4.33;3.70;;;11.30;99.90;;;;;;5073473;28;20239;-70
2022/12/25 08:28:08;;;;;;;7.50;4.90;;;11.20;99.90;;;;;;5073240;28;20180;-70
2022/12/25 08:30:33;;;;;;;4.73;4.30;;;11.30;99.90;;;;;;5072566;28;20218;-70
2022/12/25 08:32:59;;;;;;;7.10;4.40;;;11.20;99.90;;;;;;5081750;28;20219;-70
2022/12/25 08:35:25;;;;;;;7.73;4.60;;;11.30;99.90;;;;;;5094202;28;20607;-70
2022/12/25 08:37:51;;;;;;;5.67;4.10;;;11.20;99.90;;;;;;5093571;28;20636;-70
2022/12/25 08:40:17;;;;;;;4.57;4.10;;;11.10;99.90;;;;;;5093531;28;20163;-69
2022/12/25 08:42:43;;;;;;;4.93;4.50;;;11.10;99.90;;;;;;5093481;28;20229;-71
2022/12/25 08:45:09;;;;;;;6.27;4.93;;;11.20;99.90;;;;;;5093058;28;20168;-69
2022/12/25 08:47:35;;;;;;;5.07;4.50;;;11.40;99.90;;;;;;5093758;28;20255;-70
2022/12/25 08:50:00;;;;;;;5.30;4.80;;;11.50;99.90;;;;;;5093683;28;20262;-70
2022/12/25 08:52:27;;;;;;;5.70;4.93;;;11.50;99.90;;;;;;5093572;28;20178;-70
2022/12/25 08:54:53;;;;;;;5.23;4.73;;;11.60;99.90;;;;;;5092940;28;20172;-70
2022/12/25 08:57:19;;;;;;;7.23;4.37;;;11.60;99.90;;;;;;5092735;28;20211;-69
2022/12/25 08:59:44;;;;;;;5.73;4.33;;;11.60;99.90;;;;;;5093746;28;20179;-69
2022/12/25 09:02:11;;;;;;;5.13;4.67;;;11.60;99.90;;;;;;5093567;28;20170;-70
2022/12/25 09:04:37;;;;;;;5.60;5.00;;;11.70;99.90;;;;;;5093067;28;20303;-70
2022/12/25 09:07:02;;;;;;;6.73;5.27;;;11.70;99.90;;;;;;5074767;28;20203;-70
2022/12/25 09:09:28;;;;;;;5.73;5.23;;;11.70;99.90;;;;;;5093015;28;20166;-69
2022/12/25 09:11:54;;;;;;;7.37;5.63;;;11.70;99.90;;;;;;5074472;28;20183;-69
2022/12/25 09:14:20;;;;;;;6.63;5.20;;;11.70;99.90;;;;;;5093155;28;20186;-69
2022/12/25 09:16:48;;;;;;;7.10;5.13;;;11.80;99.90;;;;;;5092926;28;20744;-70
2022/12/25 09:19:13;;;;;;;4.60;4.20;;;11.80;99.90;;;;;;5093172;28;20195;-69
2022/12/25 09:21:39;;;;;;;4.77;4.40;;;11.80;99.90;;;;;;5093212;28;20670;-70
2022/12/25 09:24:05;;;;;;;9.27;4.33;;;11.70;99.90;;;;;;5092754;28;20199;-69
2022/12/25 09:26:30;;;;;;;5.17;4.70;;;11.50;99.90;;;;;;5092035;28;20172;-70
2022/12/25 09:28:56;;;;;;;8.67;4.50;;;11.60;99.90;;;;;;5092948;28;20685;-71
2022/12/25 09:31:22;;;;;;;5.13;4.47;;;11.60;99.90;;;;;;5092961;28;20160;-69
2022/12/25 09:33:48;;;;;;;4.90;4.40;;;11.50;99.90;;;;;;5092762;28;20730;-69
2022/12/25 09:36:14;;;;;;;4.70;4.30;;;11.50;99.90;;;;;;5092897;28;20194;-70
2022/12/25 09:38:39;;;;;;;5.50;5.00;;;11.50;99.90;;;;;;5092622;28;20183;-69
2022/12/25 09:41:47;;;;;;;3.93;3.63;;;11.60;99.90;;;;;;5092257;28;20168;-70
2022/12/25 09:44:20;;;;;;;4.97;3.97;;;11.50;99.90;;;;;;5047488;28;20207;-71
2022/12/25 09:46:57;;;;;;;5.73;4.03;;;11.50;99.90;;;;;;5096935;28;20204;-69
2022/12/25 09:49:34;;;;;;;4.73;3.90;;;11.50;99.90;;;;;;5096608;28;20538;-69
2022/12/25 09:52:07;;;;;;;4.20;3.80;;;11.60;99.90;;;;;;5097172;28;20163;-69
2022/12/25 09:54:48;;;;;;;5.17;4.50;;;11.60;99.90;;;;;;5096432;28;20229;-70
2022/12/25 09:57:14;;;;;;;8.23;5.37;;;11.60;99.90;;;;;;5096504;28;20215;-70
2022/12/25 09:59:46;;;;;;;6.17;5.67;;;11.50;99.90;;;;;;5096807;28;20164;-70
2022/12/25 10:02:34;;;;;;;6.10;5.50;;;11.60;99.90;;;;;;5096888;28;20200;-69
2022/12/25 10:05:06;;;;;;;4.70;4.27;;;11.70;99.90;;;;;;5078343;28;20168;-71
2022/12/25 10:07:44;;;;;;;5.97;5.37;;;11.70;99.90;;;;;;5078139;28;20517;-70
2022/12/25 10:10:33;;;;;;;5.90;5.30;;;11.80;99.90;;;;;;5096908;28;20180;-70
2022/12/25 10:13:34;;;;;;;5.60;5.10;;;11.90;99.90;;;;;;5096800;28;20533;-70
2022/12/25 10:16:24;;;;;;;4.90;4.60;;;11.80;99.90;;;;;;5082733;28;20219;-70
2022/12/25 10:19:06;;;;;;;5.30;4.80;;;11.80;99.90;;;;;;5078016;28;20256;-69
2022/12/25 10:21:32;;;;;;;5.10;4.60;;;11.90;99.90;;;;;;5096274;28;20618;-70
2022/12/25 10:23:58;;;;;;;7.33;5.43;;;11.80;99.90;;;;;;5096215;28;20188;-70
2022/12/25 10:26:25;;;;;;;5.23;4.73;;;11.90;99.90;;;;;;5096636;28;20164;-69
2022/12/25 10:29:13;;;;;;;3.90;3.60;;;11.90;99.90;;;;;;5095800;28;20241;-69
2022/12/25 10:31:40;;;;;;;4.13;3.83;;;11.90;99.90;;;;;;5096459;28;20627;-70
2022/12/25 10:34:10;;;;;;;5.37;4.90;;;11.90;99.90;;;;;;5095746;28;20224;-69
2022/12/25 10:36:35;;;;;;;5.50;5.00;;;11.90;99.90;;;;;;5096151;28;20196;-70
2022/12/25 10:39:01;;;;;;;4.90;4.50;;;11.80;99.90;;;;;;5095781;28;20534;-69
2022/12/25 10:41:31;;;;;;;5.07;4.67;;;11.50;99.90;;;;;;5096256;28;20543;-69
2022/12/25 10:43:56;;;;;;;6.07;5.43;;;11.20;99.90;;;;;;5095602;28;20190;-69
2022/12/25 10:46:25;;;;;;;6.83;6.23;;;11.20;99.90;;;;;;5077329;28;20674;-69
2022/12/25 10:49:02;;;;;;;7.40;6.70;;;11.30;99.90;;;;;;5095792;28;20180;-69
2022/12/25 10:51:34;;;;;;;10.17;8.20;;;11.30;99.90;;;;;;5095703;28;20630;-69
2022/12/25 10:54:03;;;;;;;8.60;7.67;;;11.40;99.90;;;;;;5095402;28;20160;-69
2022/12/25 10:56:28;;;;;;;6.77;6.17;;;11.30;99.90;;;;;;5095244;28;20196;-70
2022/12/25 10:59:09;;;;;;;8.77;7.80;;;11.20;99.90;;;;;;5095296;28;20172;-69
2022/12/25 11:01:35;;;;;;;8.50;6.80;;;11.20;99.90;;;;;;5095770;28;20168;-70
2022/12/25 11:04:01;;;;;;;9.50;7.40;;;11.10;99.90;;;;;;5095002;28;20179;-71
2022/12/25 11:06:29;;;;;;;9.30;8.00;;;11.00;99.90;;;;;;5093403;28;20179;-70
2022/12/25 11:09:00;;;;;;;10.57;8.60;;;10.90;99.90;;;;;;5076810;28;20168;-71
2022/12/25 11:11:27;;;;;;;11.10;9.17;;;11.00;99.90;;;;;;5095456;28;20176;-70
2022/12/25 11:13:57;;;;;;;10.57;9.20;;;11.00;99.90;;;;;;5095296;28;20172;-70
2022/12/25 11:16:28;;;;;;;11.13;8.90;;;11.00;99.90;;;;;;5094939;28;20250;-70
2022/12/25 11:18:55;;;;;;;13.73;10.23;;;11.10;99.90;;;;;;5077244;28;20229;-70
2022/12/25 11:21:22;;;;;;;10.40;9.37;;;11.10;99.90;;;;;;5094768;28;20175;-71
2022/12/25 11:23:54;;;;;;;10.90;9.60;;;11.20;99.90;;;;;;5095146;28;20192;-71
2022/12/25 11:26:20;;;;;;;11.80;9.80;;;11.30;99.90;;;;;;5095128;28;20179;-71
2022/12/25 11:28:49;;;;;;;10.70;9.60;;;11.30;99.90;;;;;;5095288;28;20168;-70
2022/12/25 11:31:20;;;;;;;13.20;10.83;;;11.40;99.90;;;;;;5094915;28;20639;-70
2022/12/25 11:34:02;;;;;;;14.40;11.90;;;11.50;99.90;;;;;;5095252;28;20674;-72
2022/12/25 11:36:45;;;;;;;12.70;9.90;;;11.60;99.90;;;;;;5094507;28;20257;-70
2022/12/25 11:39:33;;;;;;;10.63;9.60;;;11.50;99.90;;;;;;5094893;28;20226;-71
2022/12/25 11:42:13;;;;;;;10.57;9.57;;;11.30;99.90;;;;;;5094962;28;20167;-70
2022/12/25 11:45:00;;;;;;;9.97;8.97;;;11.20;99.90;;;;;;5094813;28;20164;-69
2022/12/25 11:47:48;;;;;;;11.40;10.23;;;11.10;99.90;;;;;;5094730;28;20254;-70
2022/12/25 11:50:22;;;;;;;11.10;9.67;;;11.10;99.90;;;;;;5094053;28;20168;-70
2022/12/25 11:52:49;;;;;;;10.63;9.53;;;11.00;99.90;;;;;;5095084;28;20172;-71
2022/12/25 11:55:44;;;;;;;8.13;7.33;;;11.00;99.90;;;;;;5094442;28;20168;-69
2022/12/25 11:58:26;;;;;;;9.00;8.20;;;10.80;99.90;;;;;;5093846;28;20731;-71
2022/12/25 12:00:55;;;;;;;8.23;7.53;;;10.80;99.90;;;;;;5076478;28;20171;-71
2022/12/25 12:03:29;;;;;;;10.27;9.20;;;10.90;99.90;;;;;;5094676;28;20209;-69
2022/12/25 12:06:03;;;;;;;11.63;10.23;;;10.90;99.90;;;;;;5093387;28;20165;-69
2022/12/25 12:08:30;;;;;;;9.20;8.30;;;11.00;99.90;;;;;;5093885;28;20175;-69
2022/12/25 12:11:19;;;;;;;9.37;8.47;;;11.00;99.90;;;;;;5093810;28;20176;-70
2022/12/25 12:13:47;;;;;;;9.50;8.50;;;11.10;99.90;;;;;;5094599;28;20168;-70
2022/12/25 12:16:13;;;;;;;9.20;7.80;;;11.20;99.90;;;;;;5094179;28;20271;-71
2022/12/25 12:18:40;;;;;;;9.80;8.80;;;11.20;99.90;;;;;;5075145;28;20824;-70
2022/12/25 12:21:22;;;;;;;9.07;8.13;;;11.10;99.90;;;;;;5094086;28;20631;-70
2022/12/25 12:24:11;;;;;;;12.17;9.60;;;11.10;99.90;;;;;;5075590;28;20560;-70
2022/12/25 12:26:39;;;;;;;9.63;8.67;;;11.10;99.90;;;;;;5093986;28;20175;-70
2022/12/25 12:29:19;;;;;;;13.70;11.20;;;11.10;99.90;;;;;;5094117;28;20627;-70
2022/12/25 12:31:48;;;;;;;20.73;14.10;;;11.00;99.90;;;;;;5093582;28;20611;-70
2022/12/25 12:34:28;;;;;;;9.87;8.87;;;11.00;99.90;;;;;;5093402;28;20678;-71
2022/12/25 12:37:20;;;;;;;10.07;8.67;;;10.80;99.90;;;;;;5094010;28;20205;-70
2022/12/25 12:39:52;;;;;;;10.97;9.70;;;10.80;99.90;;;;;;5082002;28;20663;-71
2022/12/25 12:42:24;;;;;;;13.07;10.93;;;10.70;99.90;;;;;;5093904;28;20164;-70
2022/12/25 12:44:52;;;;;;;11.57;10.37;;;10.80;99.90;;;;;;5093431;28;20174;-70
2022/12/25 12:47:43;;;;;;;10.27;9.33;;;10.80;99.90;;;;;;5093074;28;20171;-70
2022/12/25 12:50:29;;;;;;;12.37;11.00;;;10.80;99.90;;;;;;5093206;28;20175;-71
2022/12/25 12:52:55;;;;;;;16.13;13.30;;;10.80;99.90;;;;;;5093742;28;20270;-71
2022/12/25 12:55:29;;;;;;;11.57;10.47;;;10.70;99.90;;;;;;5093249;28;20262;-71
2022/12/25 12:58:03;;;;;;;12.73;10.83;;;10.70;99.90;;;;;;5092801;28;20203;-70
2022/12/25 13:00:43;;;;;;;9.57;8.57;;;10.70;99.90;;;;;;5093881;28;20611;-70
2022/12/25 13:03:24;;;;;;;10.47;9.37;;;10.80;99.90;;;;;;5093022;28;20232;-71
2022/12/25 13:05:56;;;;;;;8.77;7.87;;;10.80;99.90;;;;;;5093449;28;20168;-69
2022/12/25 13:08:56;;;;;;;10.67;8.80;;;10.90;99.90;;;;;;5093050;28;20171;-71
2022/12/25 13:11:27;;;;;;;8.47;7.67;;;11.00;99.90;;;;;;5074910;28;20228;-70
2022/12/25 13:13:55;;;;;;;8.37;7.57;;;11.00;99.90;;;;;;5093492;28;20254;-69
2022/12/25 13:16:39;;;;;;;8.53;7.83;;;11.00;99.90;;;;;;5092252;28;20566;-70
2022/12/25 13:19:17;;;;;;;9.07;8.17;;;11.10;99.90;;;;;;5092848;28;20167;-70
2022/12/25 13:22:03;;;;;;;8.37;7.60;;;11.10;99.90;;;;;;5092647;28;20643;-69
2022/12/25 13:24:34;;;;;;;8.50;7.80;;;11.10;99.90;;;;;;5093015;28;20188;-71
2022/12/25 13:27:01;;;;;;;10.37;9.37;;;11.10;99.90;;;;;;5093001;28;20172;-69
2022/12/25 13:29:33;;;;;;;11.33;10.17;;;11.10;99.90;;;;;;5093334;28;20168;-70
2022/12/25 13:32:00;;;;;;;12.60;10.70;;;11.10;99.90;;;;;;5092319;28;20524;-71
2022/12/25 13:34:33;;;;;;;12.67;11.27;;;11.10;99.90;;;;;;5092938;28;20236;-72
2022/12/25 13:37:06;;;;;;;11.80;10.60;;;11.10;99.90;;;;;;5093215;28;20214;-71
2022/12/25 13:39:35;;;;;;;11.83;9.90;;;11.20;99.90;;;;;;5093354;28;20527;-70
2022/12/25 13:42:09;;;;;;;12.13;10.93;;;11.20;99.90;;;;;;5092823;28;20176;-70
2022/12/25 13:44:48;;;;;;;13.20;11.80;;;11.30;99.90;;;;;;5092647;28;20171;-70
2022/12/25 13:47:24;;;;;;;12.10;10.73;;;11.30;99.90;;;;;;5092581;28;20168;-71
2022/12/25 13:49:52;;;;;;;14.20;12.40;;;11.30;99.90;;;;;;5092819;28;20630;-70
2022/12/25 13:52:22;;;;;;;16.60;14.27;;;11.40;99.90;;;;;;5092977;28;20187;-70
2022/12/25 13:54:57;;;;;;;32.57;29.13;;;11.50;99.90;;;;;;5074870;28;20199;-70
2022/12/25 13:57:50;;;;;;;12.43;10.50;;;11.50;99.90;;;;;;5092318;28;20206;-70
2022/12/25 14:00:20;;;;;;;60.57;40.63;;;11.60;99.90;;;;;;5092246;28;20160;-71
2022/12/25 14:02:46;;;;;;;16.03;13.23;;;11.60;99.90;;;;;;5092802;28;20220;-70
2022/12/25 14:05:31;;;;;;;12.93;10.50;;;11.70;99.90;;;;;;5092450;28;20172;-71
2022/12/25 14:07:59;;;;;;;24.73;21.73;;;11.80;99.90;;;;;;5092283;28;20164;-71
2022/12/25 14:10:29;;;;;;;14.17;12.67;;;11.90;99.90;;;;;;5092558;28;20164;-70
2022/12/25 14:12:59;;;;;;;13.53;10.70;;;11.80;99.90;;;;;;5092942;28;20179;-69
2022/12/25 14:15:27;;;;;;;12.63;10.43;;;11.70;99.90;;;;;;5092017;28;20172;-71
2022/12/25 14:17:53;;;;;;;13.70;11.20;;;11.70;99.90;;;;;;5092481;28;20200;-70
2022/12/25 14:20:56;;;;;;;15.00;11.40;;;11.60;99.90;;;;;;5092326;28;20645;-70
2022/12/25 14:23:21;;;;;;;14.43;11.80;;;11.60;99.90;;;;;;5062228;28;21786;-70
2022/12/25 14:25:47;;;;;;;13.27;11.90;;;11.70;99.90;;;;;;5074604;28;20183;-70
2022/12/25 14:28:23;;;;;;;17.43;13.73;;;11.80;99.90;;;;;;5074272;28;20509;-71
2022/12/25 14:30:50;;;;;;;13.87;11.97;;;11.90;99.90;;;;;;5094582;28;20175;-71
2022/12/25 14:33:19;;;;;;;16.37;12.70;;;11.90;99.90;;;;;;5095866;28;20254;-70
2022/12/25 14:35:46;;;;;;;16.17;13.07;;;11.90;99.90;;;;;;5095868;28;20686;-70
2022/12/25 14:38:24;;;;;;;13.87;12.20;;;12.10;99.90;;;;;;5096085;28;20218;-71
2022/12/25 14:41:16;;;;;;;19.27;13.20;;;11.90;99.90;;;;;;5096000;28;20164;-71